Ana Sayfa
METAR-TAF:

METAR-TAF

Havaalanları :

Gove Peninsula, Avustralya

Enlem: 12-16-12S, Boylam: 136-49-06E, yükseklik: 62 m

Güncel hava durumu gözlemi

Rapor saat 15:30 UTC de 39 dakika önce yapıldı.
Rüzgar güney/güneydoğudan 10 kt
Sıcaklık 22°C
Nem 83%
Basınç 1016 hPa
Görüş mesafesi 10 km veya daha fazla
2000 ft yükseklikte parçalı bulutlu
7100 ft yükseklikte parçalı çok bulutlu

METAR: YPGV 211530Z AUTO 15010KT 9999 // SCT020 BKN071 22/19 Q1016

Saat: 01:39 (16:09 UTC)

Tahmin

Rapor saat 13:21 UTC de 2 saat ve 48 dakika önce yapıldı.
Ayın 21'si saat 14 UTC'den ayın 22'si saat 02 UTC'ye kadar geçerli Tahmin
Rüzgar güney/güneydoğudan 10 kt
Görüş mesafesi 10 km veya daha fazla
2000 ft yükseklikte parçalı bulutlu
Ayın 21'si saat 2300 UTC'den
Rüzgar güneydoğudan 17 kt
Görüş mesafesi 10 km veya daha fazla
2500 ft yükseklikte az bulutlu
5000 ft yükseklikte parçalı bulutlu

TAF: YPGV 211321Z 2114/2202 15010KT 9999 SCT020 FM212300 13017KT 9999 FEW025 SCT050

4.000'den fazla havaalanı için hava durumu gözlemleri ve tahminleri (METAR ve TAF raporları).

Kullanılabilir istasyonlar harita üzerinde sarı ve kırmızı noktalarla gösterilir.

İstasyonun adını görmek için fareyi noktanın üzerinde gezdirin.

Sonrasında hava gözlem ve tahminlerini görmek için tıklayın.

Haritayı değiştirmek için: yaklaştırmak için siyah artı işaretli yeşil düğmeye ve uzaklaştırmak için de eksi işaretli düğmeye hızla tıklayın; bitişik haritalar için yeşil okları kullanın.


METAR-TAF: